»·PEaware :: WAT169 KSNA-KLAS

WAT169 :: KSNA-KLAS

FLIGHT INFORMATION

Flight Status: Arrived
Operator: Unknown
More flights by this operator :: More flights under this callsign
Pilot: Marty P. (27464)
Aircraft: BOMBARDIER BD-100 CHALLENGER 300
(CL30)
More flights by this aircraft type
Origin: KSNA John Wayne-Orange Co
United States
Destination: KLAS McCarran Intl
United States
More flights between these airports :: More routes between these airports
Route: FINZZ2 MISEN KEPEC6
File this flight plan on PilotEdge
Remarks:
Altitude:
(Current/Filed)
27,000ft
Speed:
(Current/Filed)
470kts
Departed: 20-Mar-20 11:40 AM
Arrived: 20-Mar-20 12:23 PM
Distance/Time
Traveled:
197nm/0:42
Distance/Time
To Go:
Arrived

Flight Plot

Page will automatically refresh every two minutes.

Flight plan parsing failed; only flown route is shown


Map Options




Map Legend


Flown Route
Filed Route
Departure Airport
Arrival Airport
Navaid (VOR, NDB)
Fix

Horizontal Profiles

Position Reports

Time Latitude Longitude Heading Altitude Ground
Speed
20-Mar-20 11:16 33.674978 -117.865011 118 63ft 0kts
20-Mar-20 11:18 33.674978 -117.865011 118 63ft 0kts
20-Mar-20 11:19 33.674978 -117.865011 118 63ft 0kts
20-Mar-20 11:20 33.674978 -117.865011 118 63ft 0kts
20-Mar-20 11:21 33.674978 -117.865011 118 63ft 0kts
20-Mar-20 11:22 33.674978 -117.865011 118 63ft 0kts
20-Mar-20 11:23 33.674978 -117.865011 118 63ft 0kts
20-Mar-20 11:24 33.674978 -117.865011 118 63ft 0kts
20-Mar-20 11:25 33.674978 -117.865011 118 63ft 0kts
20-Mar-20 11:26 33.674978 -117.865011 118 63ft 0kts
20-Mar-20 11:27 33.674978 -117.865011 118 63ft 0kts
20-Mar-20 11:28 33.674978 -117.865011 118 63ft 0kts
20-Mar-20 11:29 33.674978 -117.865011 118 63ft 0kts
20-Mar-20 11:30 33.675079 -117.865239 118 63ft 2kts
20-Mar-20 11:31 33.675158 -117.865809 33 63ft 1kts
20-Mar-20 11:32 33.675119 -117.865835 27 63ft 0kts
20-Mar-20 11:33 33.675119 -117.865835 27 63ft 0kts
20-Mar-20 11:34 33.676298 -117.865085 27 63ft 13kts
20-Mar-20 11:34 33.678992 -117.863383 27 62ft 14kts
20-Mar-20 11:36 33.680661 -117.863095 297 63ft 0kts
20-Mar-20 11:37 33.680661 -117.863095 297 63ft 0kts
20-Mar-20 11:37 33.680661 -117.863095 297 63ft 0kts
20-Mar-20 11:38 33.681480 -117.865129 251 63ft 13kts
20-Mar-20 11:40 33.651275 -117.884520 202 1226ft 188kts
20-Mar-20 11:40 33.606145 -117.893140 186 2723ft 217kts
20-Mar-20 11:41 33.548527 -117.926520 220 4670ft 245kts
20-Mar-20 11:42 33.498255 -117.983363 235 6817ft 253kts
20-Mar-20 11:43 33.525618 -118.058872 311 8013ft 298kts
20-Mar-20 11:44 33.582214 -118.122891 341 11651ft 290kts
20-Mar-20 11:45 33.668278 -118.084135 23 15049ft 363kts
20-Mar-20 11:46 33.765109 -118.027317 23 15998ft 392kts
20-Mar-20 11:47 33.860648 -117.971501 22 15997ft 370kts
20-Mar-20 11:48 33.951065 -117.903584 33 19028ft 399kts
20-Mar-20 11:49 34.041984 -117.820688 32 22086ft 425kts
20-Mar-20 11:50 34.127237 -117.721191 47 23215ft 449kts
20-Mar-20 11:51 34.207419 -117.602294 46 25709ft 470kts
20-Mar-20 11:52 34.293010 -117.474860 46 27092ft 509kts
20-Mar-20 11:53 34.384603 -117.337904 47 27272ft 540kts
20-Mar-20 11:54 34.478598 -117.196775 47 27252ft 539kts
20-Mar-20 11:55 34.573067 -117.056170 46 27259ft 535kts
20-Mar-20 11:56 34.667756 -116.918106 46 27278ft 531kts
20-Mar-20 11:57 34.762023 -116.780097 46 27287ft 529kts
20-Mar-20 11:58 34.857231 -116.643849 36 27268ft 526kts
20-Mar-20 11:59 34.970554 -116.532133 33 27047ft 528kts
20-Mar-20 12:00 35.080614 -116.425028 34 24597ft 477kts
20-Mar-20 12:01 35.170576 -116.317894 42 23163ft 461kts
20-Mar-20 12:02 35.259678 -116.206658 43 21137ft 453kts
20-Mar-20 12:03 35.345646 -116.098494 43 18795ft 433kts
20-Mar-20 12:04 35.426940 -115.995863 44 16280ft 407kts
20-Mar-20 12:05 35.503259 -115.899219 45 14025ft 386kts
20-Mar-20 12:06 35.575171 -115.807851 45 13003ft 348kts
20-Mar-20 12:07 35.638578 -115.727090 45 13004ft 312kts
20-Mar-20 12:08 35.696884 -115.652674 45 13010ft 297kts
20-Mar-20 12:09 35.755753 -115.582342 19 12995ft 289kts
20-Mar-20 12:10 35.837531 -115.571373 0 13014ft 306kts
20-Mar-20 12:11 35.924089 -115.566212 359 13000ft 315kts
20-Mar-20 12:12 35.987751 -115.508476 67 11489ft 306kts
20-Mar-20 12:13 36.017570 -115.417707 69 11003ft 275kts
20-Mar-20 12:14 36.028629 -115.325320 91 10581ft 291kts
20-Mar-20 12:15 36.028417 -115.220843 91 8135ft 309kts
20-Mar-20 12:16 36.029346 -115.130211 91 7992ft 219kts
20-Mar-20 12:17 36.067980 -115.086207 21 6433ft 225kts
20-Mar-20 12:18 36.121613 -115.065804 351 5512ft 166kts
20-Mar-20 12:19 36.161418 -115.095823 291 3606ft 187kts
20-Mar-20 12:20 36.149018 -115.132982 174 2765ft 146kts
20-Mar-20 12:21 36.110942 -115.150135 201 2445ft 145kts
20-Mar-20 12:22 36.089268 -115.163149 290 2188ft 0kts
20-Mar-20 12:23 36.091605 -115.163848 329 2188ft 15kts
20-Mar-20 12:24 36.092129 -115.164238 329 2187ft 0kts

Navigation Log

Ident Type
Flight plan parsing failed, navigation log unavailable